Time;durP1;ratioP1;P1;durP2;ratioP2;P2;SDS_P1;SDS_P2;PMS_P1;PMS_P2;Temp;Humidity;BMP_temperature;BMP_pressure;BME280_temperature;BME280_humidity;BME280_pressure;Samples;Min_cycle;Max_cycle;Signal;HPM_P1;HPM_P2
2021/12/22 00:02:03;;;;;;;10.20;5.43;;;;;;;-11.34;77.09;101718.13;5014312;28;20026;-65
2021/12/22 00:04:31;;;;;;;5.83;5.23;;;;;;;-11.36;77.04;101708.69;5012561;28;20400;-63
2021/12/22 00:06:57;;;;;;;7.53;5.25;;;;;;;-11.33;76.73;101701.84;5013721;28;20121;-66
2021/12/22 00:09:22;;;;;;;6.83;5.77;;;;;;;-11.34;76.87;101692.41;5013420;28;20041;-66
2021/12/22 00:11:49;;;;;;;9.20;5.00;;;;;;;-11.17;76.78;101718.13;5013815;28;20046;-65
2021/12/22 00:14:15;;;;;;;8.77;5.53;;;;;;;-11.13;76.67;101719.81;5014210;28;20042;-63
2021/12/22 00:16:40;;;;;;;6.57;4.78;;;;;;;-11.26;76.69;101695.00;5013797;28;20464;-65
2021/12/22 00:19:09;;;;;;;6.97;4.80;;;;;;;-11.14;76.64;101705.25;5013719;28;20069;-64
2021/12/22 00:21:36;;;;;;;7.13;4.82;;;;;;;-11.09;76.74;101712.94;5013550;28;20052;-65
2021/12/22 00:24:01;;;;;;;6.40;5.60;;;;;;;-11.00;76.67;101723.22;5013048;28;20393;-66
2021/12/22 00:26:27;;;;;;;6.07;4.97;;;;;;;-11.01;76.53;101714.63;5013656;28;20044;-65
2021/12/22 00:28:52;;;;;;;7.50;5.17;;;;;;;-10.92;76.65;101718.06;5013671;28;20470;-63
2021/12/22 00:31:20;;;;;;;6.60;5.93;;;;;;;-11.05;76.20;101678.63;5013626;28;20038;-64
2021/12/22 00:33:48;;;;;;;6.45;5.60;;;;;;;-10.86;76.13;101707.75;5013097;28;20037;-64
2021/12/22 00:36:24;;;;;;;5.72;5.05;;;;;;;-10.77;76.44;101712.84;5012735;28;20088;-64
2021/12/22 00:38:51;;;;;;;9.98;6.32;;;;;;;-10.79;76.01;101715.44;5012992;28;20080;-66
2021/12/22 00:41:17;;;;;;;8.05;6.20;;;;;;;-10.85;75.76;101709.47;5013337;28;20033;-63
2021/12/22 00:43:43;;;;;;;10.90;6.63;;;;;;;-10.97;75.88;101711.22;5014549;28;20048;-67
2021/12/22 00:46:09;;;;;;;6.67;5.00;;;;;;;-10.98;75.87;101709.50;5013243;28;20038;-62
2021/12/22 00:48:34;;;;;;;7.43;5.67;;;;;;;-11.26;76.00;101672.72;5012942;28;20034;-64
2021/12/22 00:51:01;;;;;;;8.43;6.90;;;;;;;-11.01;76.10;101718.94;5012491;28;20104;-65
2021/12/22 00:53:27;;;;;;;7.95;6.00;;;;;;;-11.08;76.09;101701.81;5012632;28;20037;-65
2021/12/22 00:55:52;;;;;;;6.95;5.43;;;;;;;-10.97;76.44;101724.09;5014933;28;20037;-64
2021/12/22 00:58:20;;;;;;;6.83;5.47;;;;;;;-11.01;76.38;101724.06;5017553;28;20535;-64
2021/12/22 01:00:47;;;;;;;5.93;5.38;;;;;;;-11.13;76.30;101704.38;5019948;28;20121;-65
2021/12/22 01:03:14;;;;;;;5.68;4.97;;;;;;;-11.05;76.10;101719.78;5015149;28;20032;-63
2021/12/22 01:05:39;;;;;;;10.98;6.05;;;;;;;-11.07;75.62;101722.38;5012737;28;20137;-66
2021/12/22 01:08:05;;;;;;;8.73;6.50;;;;;;;-11.04;75.75;101718.94;5013242;28;20045;-62
2021/12/22 01:10:31;;;;;;;6.97;4.87;;;;;;;-11.10;75.36;101712.09;5012401;28;20037;-63
2021/12/22 01:12:58;;;;;;;6.65;4.75;;;;;;;-11.03;75.32;101731.78;5012412;28;20042;-64
2021/12/22 01:15:24;;;;;;;7.43;5.40;;;;;;;-11.13;75.39;101724.09;4994932;28;20612;-64
2021/12/22 01:17:58;;;;;;;6.35;4.75;;;;;;;-11.22;75.24;101719.84;5017124;28;20386;-65
2021/12/22 01:20:33;;;;;;;7.78;5.22;;;;;;;-11.23;74.94;101743.84;5021513;28;20621;-63
2021/12/22 01:23:03;;;;;;;7.78;4.85;;;;;;;-11.31;75.35;101740.41;5019682;28;20144;-63
2021/12/22 01:25:31;;;;;;;5.05;4.65;;;;;;;-11.30;75.58;101742.97;5013025;28;20073;-64
2021/12/22 01:27:58;;;;;;;5.75;3.72;;;;;;;-11.40;75.47;101737.84;5012112;28;20068;-65
2021/12/22 01:30:26;;;;;;;5.57;4.38;;;;;;;-11.46;75.70;101736.13;4994450;28;20065;-64
2021/12/22 01:32:56;;;;;;;4.75;4.35;;;;;;;-12.12;75.72;101623.97;5012310;28;20049;-63
2021/12/22 01:35:24;;;;;;;6.85;5.00;;;;;;;-11.40;75.42;101745.56;5011930;28;20042;-63
2021/12/22 01:37:50;;;;;;;5.18;4.68;;;;;;;-11.45;75.53;101742.13;4994977;28;20049;-62
2021/12/22 01:40:18;;;;;;;5.40;4.90;;;;;;;-11.42;76.66;101740.41;5012217;28;20045;-62
2021/12/22 01:42:45;;;;;;;7.78;5.45;;;;;;;-11.40;76.75;101748.13;5012229;28;20108;-62
2021/12/22 01:45:30;;;;;;;7.70;4.88;;;;;;;-11.41;76.38;101741.28;5011854;28;20508;-61
2021/12/22 01:50:48;;;;;;;4.85;4.43;;;;;;;-11.52;76.62;101751.56;4994333;28;20476;-63
2021/12/22 01:53:19;;;;;;;6.78;4.60;;;;;;;-11.65;76.33;101734.41;5011913;28;20034;-64
2021/12/22 01:55:45;;;;;;;5.65;4.85;;;;;;;-11.65;76.15;101753.25;5013801;28;20038;-62
2021/12/22 01:58:12;;;;;;;5.35;4.82;;;;;;;-11.67;76.08;101751.53;4996264;28;20045;-64
2021/12/22 02:00:37;;;;;;;7.75;5.13;;;;;;;-11.74;75.91;101755.81;5012264;28;20029;-64
2021/12/22 02:03:03;;;;;;;5.77;4.70;;;;;;;-11.90;76.19;101728.41;5012003;28;20037;-65
2021/12/22 02:05:29;;;;;;;6.37;5.87;;;;;;;-11.90;76.94;101744.69;5011779;28;20088;-62
2021/12/22 02:08:00;;;;;;;10.00;5.83;;;;;;;-11.86;76.56;101749.84;5011792;28;20272;-64
2021/12/22 02:10:47;;;;;;;5.93;5.32;;;;;;;-11.82;77.06;101742.16;5011947;28;20489;-64
2021/12/22 02:13:20;;;;;;;7.13;5.40;;;;;;;-11.72;76.52;101748.97;5012353;28;20502;-64
2021/12/22 02:15:47;;;;;;;8.30;6.03;;;;;;;-11.71;76.53;101735.28;5013105;28;20053;-67
2021/12/22 02:18:19;;;;;;;5.45;4.88;;;;;;;-11.66;76.69;101740.41;5012667;28;20065;-65
2021/12/22 02:20:53;;;;;;;7.50;6.38;;;;;;;-11.95;76.00;101684.75;5012669;28;20505;-65
2021/12/22 02:23:18;;;;;;;7.05;4.72;;;;;;;-11.66;75.99;101742.97;5012413;28;20054;-66
2021/12/22 02:25:51;;;;;;;5.53;4.90;;;;;;;-11.71;76.17;101737.84;4996114;28;20065;-65
2021/12/22 02:28:25;;;;;;;8.30;5.28;;;;;;;-11.63;76.33;101742.97;5016048;28;20038;-64
2021/12/22 02:30:52;;;;;;;6.75;5.40;;;;;;;-11.70;75.66;101728.41;5015675;28;20176;-64
2021/12/22 02:33:34;;;;;;;5.25;4.70;;;;;;;-11.58;76.15;101741.25;5016122;28;20041;-63
2021/12/22 02:38:58;;;;;;;10.60;4.97;;;;;;;-11.85;75.97;101723.28;5016119;28;20048;-66
2021/12/22 02:41:28;;;;;;;6.65;5.40;;;;;;;-11.84;76.26;101736.16;5015346;28;20531;-66
2021/12/22 02:43:56;;;;;;;6.30;5.07;;;;;;;-11.74;76.04;101754.97;4997727;28;20393;-63
2021/12/22 02:46:33;;;;;;;7.65;5.85;;;;;;;-11.87;76.31;101741.28;5015636;28;20029;-62
2021/12/22 02:49:03;;;;;;;9.50;5.90;;;;;;;-11.81;76.08;101749.00;5015351;28;20140;-64
2021/12/22 02:51:29;;;;;;;10.57;5.93;;;;;;;-11.67;75.87;101766.97;5015264;28;20042;-63
2021/12/22 02:54:04;;;;;;;9.98;5.90;;;;;;;-11.71;75.87;101750.69;5015283;28;20121;-64
2021/12/22 02:56:38;;;;;;;7.38;5.22;;;;;;;-11.96;75.67;101702.72;5014978;28;20034;-63
2021/12/22 03:04:25;;;;;;;6.68;5.93;;;;;;;-11.87;75.93;101748.97;5015462;28;20033;-65
2021/12/22 03:06:59;;;;;;;12.57;6.25;;;;;;;-11.87;75.76;101754.13;5015045;28;20381;-65
2021/12/22 03:09:30;;;;;;;11.30;6.55;;;;;;;-11.85;75.80;101762.72;5015071;28;20073;-65
2021/12/22 03:12:01;;;;;;;12.23;7.38;;;;;;;-11.82;75.79;101762.72;4998017;28;20497;-64
2021/12/22 03:14:27;;;;;;;8.88;6.70;;;;;;;-11.77;75.59;101770.38;5015100;28;20046;-66
2021/12/22 03:16:55;;;;;;;9.90;7.72;;;;;;;-11.91;75.30;101739.56;5014640;28;20061;-63
2021/12/22 03:19:29;;;;;;;14.98;7.32;;;;;;;-11.78;75.56;101756.72;5014513;28;20049;-64
2021/12/22 03:22:04;;;;;;;12.60;6.85;;;;;;;-11.85;75.61;101757.56;5014773;28;20053;-65
2021/12/22 03:24:32;;;;;;;11.60;7.32;;;;;;;-11.93;75.47;101760.09;5014484;28;20038;-63
2021/12/22 03:27:02;;;;;;;12.68;6.25;;;;;;;-11.90;75.67;101759.25;5014353;28;20057;-61
2021/12/22 03:29:28;;;;;;;11.65;6.43;;;;;;;-12.02;75.01;101748.97;4996459;28;20030;-63
2021/12/22 03:31:54;;;;;;;13.82;6.43;;;;;;;-11.86;75.61;101760.97;5014441;28;20051;-62
2021/12/22 03:34:20;;;;;;;9.10;7.13;;;;;;;-11.86;75.13;101760.09;4996366;28;20448;-65
2021/12/22 03:36:45;;;;;;;11.07;6.90;;;;;;;-11.91;74.72;101749.81;5013844;28;20049;-65
2021/12/22 03:39:15;;;;;;;9.13;6.43;;;;;;;-11.80;74.77;101761.00;5013844;28;20041;-62
2021/12/22 03:41:43;;;;;;;9.07;5.78;;;;;;;-11.88;74.38;101754.97;4996184;28;20136;-67
2021/12/22 03:44:10;;;;;;;9.07;6.25;;;;;;;-11.96;74.43;101748.97;5013698;28;20120;-68
2021/12/22 03:46:35;;;;;;;8.48;6.82;;;;;;;-11.88;74.65;101772.94;5013899;28;20092;-65
2021/12/22 03:49:03;;;;;;;8.97;6.60;;;;;;;-11.89;74.60;101758.38;4996563;28;20033;-67
2021/12/22 03:51:28;;;;;;;8.95;6.63;;;;;;;-11.96;75.09;101754.09;5013714;28;20046;-63
2021/12/22 03:53:54;;;;;;;10.37;6.97;;;;;;;-11.88;74.64;101762.69;4996256;28;20033;-65
2021/12/22 03:56:21;;;;;;;6.85;5.88;;;;;;;-11.80;74.72;101771.28;4996388;28;20042;-65
2021/12/22 03:58:46;;;;;;;15.32;7.38;;;;;;;-11.91;74.72;101757.53;5014013;28;20407;-67
2021/12/22 04:01:12;;;;;;;8.20;6.63;;;;;;;-11.91;74.76;101778.09;5014009;28;20041;-63
2021/12/22 04:03:39;;;;;;;6.93;5.97;;;;;;;-12.02;75.06;101759.22;5013657;28;20723;-63
2021/12/22 04:06:05;;;;;;;7.78;5.80;;;;;;;-11.97;75.45;101780.66;5013502;28;20481;-66
2021/12/22 04:08:31;;;;;;;8.00;5.65;;;;;;;-12.02;75.30;101779.78;5013793;28;20533;-62
2021/12/22 04:10:57;;;;;;;6.40;5.80;;;;;;;-12.12;75.75;101766.06;4996099;28;20041;-65
2021/12/22 04:13:22;;;;;;;8.13;6.53;;;;;;;-12.16;75.64;101766.03;5013789;28;20034;-65
2021/12/22 04:15:48;;;;;;;10.60;8.10;;;;;;;-12.15;75.90;101776.31;5013694;28;20033;-64
2021/12/22 04:18:14;;;;;;;6.37;4.80;;;;;;;-12.11;75.93;101790.88;5012119;28;20473;-64
2021/12/22 04:20:45;;;;;;;10.75;5.65;;;;;;;-12.12;76.32;101788.31;5013505;28;20081;-63
2021/12/22 04:23:15;;;;;;;7.22;6.40;;;;;;;-12.08;76.32;101790.91;5013356;28;20054;-67
2021/12/22 04:25:40;;;;;;;7.05;5.35;;;;;;;-12.15;76.16;101762.59;5015286;28;20115;-63
2021/12/22 04:28:09;;;;;;;6.97;6.37;;;;;;;-12.30;76.76;101730.91;5013125;28;20482;-65
2021/12/22 04:30:38;;;;;;;8.55;5.65;;;;;;;-12.01;76.20;101790.06;5013104;28;20040;-63
2021/12/22 04:33:04;;;;;;;7.55;6.78;;;;;;;-12.03;76.52;101796.03;5013270;28;20057;-65
2021/12/22 04:35:30;;;;;;;10.47;7.37;;;;;;;-12.10;76.71;101786.63;5012966;28;20080;-65
2021/12/22 04:38:02;;;;;;;8.82;6.68;;;;;;;-12.04;77.16;101797.75;5012468;28;20057;-65
2021/12/22 04:40:29;;;;;;;18.52;10.52;;;;;;;-12.01;77.45;101792.63;4995689;28;20504;-66
2021/12/22 04:42:55;;;;;;;6.38;5.75;;;;;;;-12.05;76.94;101774.63;5013050;28;20044;-64
2021/12/22 04:45:21;;;;;;;14.13;7.40;;;;;;;-12.04;76.73;101781.50;5012933;28;20037;-67
2021/12/22 04:47:48;;;;;;;12.00;6.70;;;;;;;-11.99;77.25;101774.66;5012958;28;20091;-65
2021/12/22 04:50:17;;;;;;;9.98;7.10;;;;;;;-11.94;77.26;101783.22;5012491;28;20091;-68
2021/12/22 04:52:51;;;;;;;13.90;6.90;;;;;;;-11.99;77.20;101772.09;5012973;28;20038;-67
2021/12/22 04:55:17;;;;;;;21.45;6.97;;;;;;;-11.99;76.48;101765.22;5013044;28;20121;-67
2021/12/22 04:57:43;;;;;;;8.00;6.23;;;;;;;-12.18;76.95;101736.91;5013249;28;20076;-62
2021/12/22 05:00:10;;;;;;;7.60;5.63;;;;;;;-11.93;76.97;101795.19;5012966;28;20042;-63
2021/12/22 05:02:36;;;;;;;11.05;6.60;;;;;;;-11.95;77.00;101787.50;5012555;28;20061;-63
2021/12/22 05:05:03;;;;;;;7.13;6.40;;;;;;;-12.06;77.32;101780.63;5012568;28;20076;-66
2021/12/22 05:07:28;;;;;;;7.88;6.82;;;;;;;-12.07;77.16;101784.06;5012579;28;20265;-64
2021/12/22 05:09:54;;;;;;;7.73;6.03;;;;;;;-11.96;77.29;101792.63;5012972;28;20037;-65
2021/12/22 05:12:20;;;;;;;12.57;6.93;;;;;;;-11.99;77.39;101774.66;5012693;28;20056;-64
2021/12/22 05:14:49;;;;;;;9.43;6.10;;;;;;;-11.85;76.82;101780.69;5012078;28;20057;-66
2021/12/22 05:17:22;;;;;;;13.48;6.82;;;;;;;-11.72;76.67;101789.22;5012546;28;20045;-64
2021/12/22 05:19:48;;;;;;;8.05;6.90;;;;;;;-11.68;76.21;101785.81;5012719;28;20535;-65
2021/12/22 05:22:14;;;;;;;12.40;8.45;;;;;;;-11.57;76.20;101797.81;5013030;28;20049;-64
2021/12/22 05:24:40;;;;;;;10.93;7.20;;;;;;;-11.49;76.40;101807.25;5012485;28;20030;-64
2021/12/22 05:27:11;;;;;;;8.70;6.90;;;;;;;-11.58;76.30;101782.38;5024361;28;20057;-64
2021/12/22 05:29:38;;;;;;;9.88;7.47;;;;;;;-11.43;76.12;101802.13;5025032;28;20037;-65
2021/12/22 05:32:04;;;;;;;9.38;7.85;;;;;;;-11.59;76.24;101773.81;5004348;28;20030;-63
2021/12/22 05:34:30;;;;;;;15.13;6.85;;;;;;;-11.56;76.27;101790.97;5012198;28;20533;-63
2021/12/22 05:36:56;;;;;;;8.33;7.13;;;;;;;-11.69;76.06;101771.25;5012493;28;20034;-63
2021/12/22 05:39:21;;;;;;;6.60;6.00;;;;;;;-11.60;76.41;101804.66;5012366;28;20042;-66
2021/12/22 05:41:54;;;;;;;8.95;6.93;;;;;;;-11.74;76.24;101790.94;5012557;28;20409;-62
2021/12/22 05:44:19;;;;;;;8.30;6.53;;;;;;;-11.73;76.46;101798.66;5012581;28;20408;-65
2021/12/22 05:46:45;;;;;;;10.23;7.37;;;;;;;-11.92;76.25;101779.78;5013128;28;20038;-64
2021/12/22 05:49:10;;;;;;;7.40;6.23;;;;;;;-11.83;76.48;101796.09;5018788;28;20505;-64
2021/12/22 05:51:36;;;;;;;9.60;6.90;;;;;;;-11.87;76.74;101795.22;5021241;28;20496;-64
2021/12/22 05:54:01;;;;;;;7.97;6.90;;;;;;;-11.83;76.67;101796.97;5019674;28;20091;-67
2021/12/22 05:56:29;;;;;;;10.63;6.17;;;;;;;-11.92;76.16;101795.22;5013274;28;20033;-67
2021/12/22 05:58:56;;;;;;;8.20;6.63;;;;;;;-11.86;76.55;101807.19;5012879;28;20033;-63
2021/12/22 06:01:22;;;;;;;8.75;5.60;;;;;;;-11.98;76.32;101805.47;5012387;28;20521;-64
2021/12/22 06:03:47;;;;;;;8.50;5.87;;;;;;;-11.89;76.97;101822.59;5016808;28;20045;-66
2021/12/22 06:06:13;;;;;;;7.90;6.10;;;;;;;-11.96;76.83;101816.59;5016835;28;20133;-73
2021/12/22 06:08:39;;;;;;;8.43;6.70;;;;;;;-11.93;76.72;101826.03;5016157;28;20056;-64
2021/12/22 06:11:04;;;;;;;12.70;7.93;;;;;;;-11.97;76.77;101819.16;5016174;28;20034;-66
2021/12/22 06:13:30;;;;;;;13.37;8.83;;;;;;;-11.95;77.33;101832.88;5015892;28;20265;-64
2021/12/22 06:15:55;;;;;;;20.13;8.40;;;;;;;-11.94;77.00;101832.03;5015854;28;20160;-66
2021/12/22 06:18:21;;;;;;;27.53;12.20;;;;;;;-11.99;77.02;101832.00;5016086;28;20041;-63
2021/12/22 06:20:51;;;;;;;13.30;8.40;;;;;;;-11.95;76.34;101838.88;5014070;28;20065;-65
2021/12/22 06:23:16;;;;;;;10.48;6.93;;;;;;;-11.93;76.56;101844.88;5014976;28;21045;-64
2021/12/22 06:25:42;;;;;;;10.70;7.53;;;;;;;-11.98;76.66;101835.44;5015194;28;20090;-64
2021/12/22 06:28:07;;;;;;;15.13;9.57;;;;;;;-12.04;76.23;101828.56;4998016;28;20405;-65
2021/12/22 06:30:33;;;;;;;12.23;7.43;;;;;;;-11.99;76.42;101838.84;5015159;28;20054;-64
2021/12/22 06:32:59;;;;;;;10.50;7.23;;;;;;;-11.99;76.55;101844.84;5014206;28;20045;-64
2021/12/22 06:35:25;;;;;;;9.95;7.47;;;;;;;-12.05;76.43;101843.97;4998122;28;20030;-68
2021/12/22 06:37:51;;;;;;;10.67;6.30;;;;;;;-12.03;76.53;101844.84;5015051;28;20038;-68
2021/12/22 06:40:18;;;;;;;22.63;7.13;;;;;;;-12.05;76.38;101846.53;4997883;28;20481;-67
2021/12/22 06:42:46;;;;;;;8.25;6.13;;;;;;;-12.03;76.58;101853.41;5014742;28;20503;-63
2021/12/22 06:45:13;;;;;;;10.67;6.07;;;;;;;-12.01;76.61;101853.41;4997560;28;20041;-64
2021/12/22 06:47:40;;;;;;;10.90;6.55;;;;;;;-12.09;76.62;101837.97;5014578;28;20920;-67
2021/12/22 06:50:07;;;;;;;15.20;8.98;;;;;;;-12.07;76.86;101843.97;5015138;28;20038;-65
2021/12/22 06:52:33;;;;;;;12.00;6.40;;;;;;;-12.06;77.04;101855.97;5015283;28;20049;-75
2021/12/22 06:54:59;;;;;;;9.55;6.55;;;;;;;-12.02;77.06;101867.97;5015458;28;20034;-76
2021/12/22 06:57:25;;;;;;;15.35;8.02;;;;;;;-12.08;76.54;101854.25;5015157;28;20045;-71
2021/12/22 06:59:51;;;;;;;9.80;5.87;;;;;;;-11.98;77.32;101873.97;5014919;28;20441;-71
2021/12/22 07:02:17;;;;;;;9.07;6.33;;;;;;;-12.05;76.94;101856.81;4997295;28;20516;-70
2021/12/22 07:04:42;;;;;;;12.88;6.72;;;;;;;-12.13;76.69;101849.09;4997347;28;20049;-73
2021/12/22 07:07:08;;;;;;;10.33;6.10;;;;;;;-11.97;76.99;101866.25;4997040;28;20485;-70
2021/12/22 07:09:34;;;;;;;10.27;6.17;;;;;;;-11.94;76.89;101867.97;5037783;28;20024;-73
2021/12/22 07:11:59;;;;;;;8.83;5.77;;;;;;;-12.00;76.41;101866.25;5017554;28;20426;-72
2021/12/22 07:14:25;;;;;;;12.70;6.60;;;;;;;-12.01;76.73;101859.41;4997451;28;20038;-73
2021/12/22 07:18:08;;;;;;;11.80;7.30;;;;;;;-12.00;76.68;101848.28;5110671;27;20378;-73
2021/12/22 07:20:34;;;;;;;11.98;7.15;;;;;;;-12.15;76.67;101826.78;5109244;28;20085;-76
2021/12/22 07:23:09;;;;;;;23.90;7.28;;;;;;;-12.18;76.68;101824.22;5110672;28;20028;-77
2021/12/22 07:25:35;;;;;;;8.52;6.45;;;;;;;-12.02;76.65;101841.41;5110803;28;20101;-75
2021/12/22 07:28:00;;;;;;;12.60;7.50;;;;;;;-11.91;76.77;101862.84;5109858;28;20565;-74
2021/12/22 07:30:26;;;;;;;10.90;7.03;;;;;;;-12.07;76.86;101827.72;5110111;28;20036;-73
2021/12/22 07:32:52;;;;;;;8.55;6.85;;;;;;;-11.86;76.58;101863.72;5108191;28;20040;-76
2021/12/22 07:35:30;;;;;;;10.80;7.13;;;;;;;-12.18;76.51;101808.81;5110460;28;20082;-73
2021/12/22 07:38:02;;;;;;;8.70;6.78;;;;;;;-11.83;76.82;101878.31;5109880;28;20050;-68
2021/12/22 07:40:27;;;;;;;10.07;6.95;;;;;;;-11.86;76.84;101868.84;5107380;28;20040;-74
2021/12/22 07:42:53;;;;;;;12.32;7.53;;;;;;;-11.91;76.22;101865.41;5090266;28;20032;-71
2021/12/22 07:45:19;;;;;;;14.60;8.80;;;;;;;-11.86;76.25;101866.28;5107601;28;20066;-70
2021/12/22 07:47:44;;;;;;;13.67;8.40;;;;;;;-11.79;76.79;101880.03;5109239;28;20412;-68
2021/12/22 07:50:10;;;;;;;14.53;8.20;;;;;;;-11.82;76.53;101870.63;5109399;28;20036;-70
2021/12/22 07:52:35;;;;;;;19.58;8.25;;;;;;;-12.30;76.28;101796.81;5109179;28;20051;-70
2021/12/22 07:55:02;;;;;;;10.57;6.60;;;;;;;-11.80;76.24;101876.63;5109469;28;20077;-70
2021/12/22 07:57:28;;;;;;;24.95;8.30;;;;;;;-11.88;76.63;101863.72;5109368;28;20046;-69
2021/12/22 07:59:54;;;;;;;9.93;7.40;;;;;;;-11.86;76.16;101868.84;5112188;28;20024;-70
2021/12/22 08:02:19;;;;;;;11.00;6.97;;;;;;;-11.89;76.71;101876.56;5109373;28;20367;-71
2021/12/22 08:04:45;;;;;;;13.87;8.13;;;;;;;-11.86;76.73;101878.28;5109226;28;20181;-69
2021/12/22 08:07:10;;;;;;;11.50;7.23;;;;;;;-11.85;76.82;101868.03;5109400;28;20044;-69
2021/12/22 08:09:36;;;;;;;14.80;8.77;;;;;;;-11.91;76.53;101852.56;5107610;28;20024;-67
2021/12/22 08:12:05;;;;;;;12.63;6.93;;;;;;;-11.73;76.53;101886.03;5108622;28;20482;-69
2021/12/22 08:14:40;;;;;;;11.45;7.75;;;;;;;-11.76;76.47;101869.72;5108495;28;20044;-69
2021/12/22 08:17:08;;;;;;;16.30;8.38;;;;;;;-11.72;76.59;101861.19;5108486;28;20525;-68
2021/12/22 08:19:34;;;;;;;10.18;7.45;;;;;;;-11.90;76.07;101823.47;5108936;28;20050;-69
2021/12/22 08:22:00;;;;;;;9.47;6.80;;;;;;;-11.55;76.14;101869.81;5109015;28;20036;-69
2021/12/22 08:24:26;;;;;;;13.15;6.70;;;;;;;-11.51;75.73;101858.66;5109026;28;20078;-68
2021/12/22 08:26:52;;;;;;;10.57;6.53;;;;;;;-11.43;75.51;101850.97;5108491;28;20040;-67
2021/12/22 08:29:18;;;;;;;9.83;7.27;;;;;;;-11.61;75.12;101801.22;5095346;28;20118;-69
2021/12/22 08:31:44;;;;;;;10.45;6.90;;;;;;;-10.97;74.77;101875.00;5095156;28;20027;-69
2021/12/22 08:34:10;;;;;;;9.37;7.00;;;;;;;-10.85;74.54;101894.72;5096340;28;20047;-67
2021/12/22 08:39:23;;;;;;;10.35;8.45;;;;;;;-11.01;74.08;101832.13;5094833;28;20043;-68
2021/12/22 08:41:49;;;;;;;11.53;7.63;;;;;;;-10.68;74.18;101882.72;5094808;28;20036;-69
2021/12/22 08:44:18;;;;;;;11.88;7.18;;;;;;;-10.64;74.12;101887.00;5094818;28;20040;-68
2021/12/22 08:46:46;;;;;;;;;;;;;;;-10.62;74.11;101885.28;5093926;28;20028;-70
2021/12/22 08:49:12;;;;;;;10.38;7.97;;;;;;;-10.67;74.31;101889.59;5095009;28;19930;-68
2021/12/22 08:51:38;;;;;;;11.33;7.97;;;;;;;-10.73;74.44;101871.56;5094771;28;20040;-70
2021/12/22 08:54:03;;;;;;;8.57;7.03;;;;;;;-10.72;74.42;101873.25;5094603;28;20051;-67
2021/12/22 08:56:30;;;;;;;12.23;6.80;;;;;;;-10.65;74.68;101885.28;5093893;28;20031;-68
2021/12/22 08:58:56;;;;;;;11.18;7.03;;;;;;;-10.96;74.50;101836.41;5094518;28;20390;-67
2021/12/22 09:01:22;;;;;;;8.93;6.63;;;;;;;-10.79;74.36;101862.13;5094319;28;20028;-68
2021/12/22 09:03:48;;;;;;;12.80;6.97;;;;;;;-10.71;74.33;101874.97;5094507;28;20118;-69
2021/12/22 09:06:14;;;;;;;8.47;5.53;;;;;;;-10.64;74.18;101874.13;5094598;28;20127;-67
2021/12/22 09:08:41;;;;;;;10.20;8.18;;;;;;;-10.55;74.63;101883.56;5094541;28;20512;-68
2021/12/22 09:11:07;;;;;;;12.60;7.43;;;;;;;-10.56;74.71;101879.25;5092729;28;20457;-67
2021/12/22 09:13:35;;;;;;;6.53;5.70;;;;;;;-10.50;74.27;101882.69;5094080;28;20032;-68
2021/12/22 09:16:02;;;;;;;11.52;6.43;;;;;;;-10.48;74.29;101870.66;5092519;28;20094;-66
2021/12/22 09:18:29;;;;;;;8.27;6.00;;;;;;;-10.46;73.65;101868.94;5094027;28;20047;-68
2021/12/22 09:20:54;;;;;;;5.97;5.38;;;;;;;-10.37;73.24;101874.09;5094179;28;20048;-68
2021/12/22 09:23:20;;;;;;;7.87;6.17;;;;;;;-10.28;73.64;101877.50;5094003;28;20123;-68
2021/12/22 09:25:45;;;;;;;7.53;6.70;;;;;;;-10.28;73.17;101874.91;5093431;28;20035;-65
2021/12/22 09:28:13;;;;;;;6.67;5.80;;;;;;;-10.19;73.41;101877.44;5093753;28;20039;-69
2021/12/22 09:30:40;;;;;;;7.53;6.03;;;;;;;-10.12;72.74;101884.25;5093946;28;20111;-67
2021/12/22 09:33:07;;;;;;;12.45;6.20;;;;;;;-10.14;73.06;101880.84;5093611;28;20032;-69
2021/12/22 09:35:34;;;;;;;10.70;6.60;;;;;;;-10.10;72.74;101878.28;5093688;28;20150;-67
2021/12/22 09:38:00;;;;;;;12.05;7.35;;;;;;;-10.06;72.77;101881.69;5093572;28;20036;-67
2021/12/22 09:40:25;;;;;;;7.47;6.43;;;;;;;-10.09;72.62;101873.97;5091101;28;20062;-67
2021/12/22 09:42:51;;;;;;;10.97;6.07;;;;;;;-10.11;72.38;101875.72;5093687;28;20552;-67
2021/12/22 09:45:18;;;;;;;10.33;5.67;;;;;;;-10.12;72.32;101874.84;5093183;28;20040;-68
2021/12/22 09:48:00;;;;;;;8.60;6.35;;;;;;;-10.26;72.50;101860.31;5093426;28;20027;-66
2021/12/22 09:50:39;;;;;;;11.75;7.32;;;;;;;-10.34;72.88;101881.81;5093334;28;20085;-67
2021/12/22 09:53:04;;;;;;;;;;;;;;;-10.30;73.26;101899.81;5093883;28;20036;-66
2021/12/22 09:55:34;;;;;;;12.10;8.13;;;;;;;-10.28;73.10;101898.09;5093212;28;20015;-67
2021/12/22 09:58:01;;;;;;;9.35;5.95;;;;;;;-10.25;73.17;101892.94;5093087;28;20494;-68
2021/12/22 10:00:26;;;;;;;12.07;8.10;;;;;;;-10.21;72.51;101886.91;5093536;28;20402;-71
2021/12/22 10:02:52;;;;;;;14.20;8.23;;;;;;;-10.13;72.25;101882.56;5092964;28;20534;-68
2021/12/22 10:05:17;;;;;;;15.17;6.70;;;;;;;-10.02;71.95;101875.66;5092525;28;20036;-66
2021/12/22 10:07:44;;;;;;;11.60;6.63;;;;;;;-9.99;71.78;101865.34;5093310;28;20040;-67
2021/12/22 10:10:10;;;;;;;7.35;6.65;;;;;;;-9.90;71.45;101883.34;5092590;28;20039;-67
2021/12/22 10:12:36;;;;;;;11.02;6.15;;;;;;;-10.09;71.37;101867.09;5093074;28;20039;-66
2021/12/22 10:15:06;;;;;;;7.07;6.05;;;;;;;-10.00;71.67;101886.81;5092824;28;20422;-68
2021/12/22 10:17:39;;;;;;;14.35;5.75;;;;;;;-10.17;71.79;101871.41;5091395;28;20052;-67
2021/12/22 10:20:11;;;;;;;8.90;6.05;;;;;;;-10.08;72.42;101896.31;5091618;28;20089;-66
2021/12/22 10:22:43;;;;;;;6.47;5.75;;;;;;;-10.22;72.23;101880.03;5092125;28;20104;-67
2021/12/22 10:25:31;;;;;;;7.25;5.80;;;;;;;-10.18;71.95;101894.59;5092808;28;20039;-67
2021/12/22 10:28:09;;;;;;;11.15;7.25;;;;;;;-10.23;72.78;101886.06;5092551;28;20491;-68
2021/12/22 10:30:44;;;;;;;5.82;5.28;;;;;;;-10.39;72.35;101854.34;5091358;28;20070;-67
2021/12/22 10:33:19;;;;;;;8.38;6.05;;;;;;;-10.13;72.44;101888.56;5092776;28;20507;-67
2021/12/22 10:35:54;;;;;;;6.32;5.00;;;;;;;-10.06;72.58;101894.56;5092536;28;20031;-67
2021/12/22 10:38:26;;;;;;;7.10;5.75;;;;;;;-10.08;72.34;101880.84;5092956;28;20489;-67
2021/12/22 10:40:57;;;;;;;6.72;5.47;;;;;;;-10.01;72.46;101882.53;5092822;28;20115;-67
2021/12/22 10:43:29;;;;;;;8.88;6.90;;;;;;;-10.01;72.24;101885.97;5092648;28;20036;-68
2021/12/22 10:46:01;;;;;;;7.72;5.65;;;;;;;-10.11;72.63;101878.28;5092803;28;20040;-67
2021/12/22 10:51:20;;;;;;;8.38;6.65;;;;;;;-10.12;72.45;101884.25;5092260;28;20509;-66
2021/12/22 10:53:49;;;;;;;6.63;6.00;;;;;;;-10.16;72.74;101877.41;5092525;28;20123;-68
2021/12/22 10:56:25;;;;;;;8.38;5.85;;;;;;;-10.09;72.98;101874.84;5092310;28;20081;-66
2021/12/22 10:59:08;;;;;;;6.55;5.63;;;;;;;-9.95;72.81;101881.66;5092090;28;20042;-67
2021/12/22 11:01:41;;;;;;;9.70;7.10;;;;;;;-9.99;73.02;101873.06;5091968;28;20043;-68
2021/12/22 11:04:19;;;;;;;7.18;6.05;;;;;;;-9.91;72.53;101868.72;5092301;28;20032;-67
2021/12/22 11:06:45;;;;;;;6.47;5.80;;;;;;;-10.14;72.07;101826.75;5092443;28;20383;-66
2021/12/22 11:09:14;;;;;;;10.05;6.43;;;;;;;-9.81;72.20;101869.56;5090575;28;20117;-67
2021/12/22 11:11:54;;;;;;;8.73;7.53;;;;;;;-9.72;72.19;101864.38;5091888;28;20127;-66
2021/12/22 11:14:33;;;;;;;14.82;6.05;;;;;;;-9.65;71.36;101893.53;5092134;28;20640;-68
2021/12/22 11:17:09;;;;;;;13.60;5.72;;;;;;;-9.73;71.55;101878.97;5091605;28;20059;-67
2021/12/22 11:20:03;;;;;;;7.10;5.20;;;;;;;-9.76;71.67;101884.16;5092198;28;20042;-67
2021/12/22 11:22:53;;;;;;;10.63;7.18;;;;;;;-9.75;72.07;101879.84;5091715;28;20044;-66
2021/12/22 11:25:20;;;;;;;9.68;7.53;;;;;;;-9.80;71.75;101866.13;5092267;28;20036;-66
2021/12/22 11:27:47;;;;;;;13.52;6.72;;;;;;;-9.78;72.12;101874.72;5092057;28;20549;-67
2021/12/22 11:30:13;;;;;;;8.75;6.43;;;;;;;-9.88;72.24;101866.16;5092308;28;20024;-67
2021/12/22 11:32:39;;;;;;;13.03;5.93;;;;;;;-9.89;72.10;101861.84;5092366;28;20036;-67
2021/12/22 11:35:08;;;;;;;10.70;7.43;;;;;;;-10.05;72.25;101831.88;5090947;28;20067;-69
2021/12/22 11:37:35;;;;;;;19.98;8.23;;;;;;;-9.86;72.64;101864.41;5092631;28;20036;-67